createdAt,value
2017-06-03T00:00:47.202Z,20.90
2017-06-03T00:01:47.842Z,20.87
2017-06-03T00:02:48.485Z,20.88
2017-06-03T00:03:49.126Z,20.88
2017-06-03T00:04:49.917Z,20.90
2017-06-03T00:05:50.559Z,20.87
2017-06-03T00:06:51.205Z,20.88
2017-06-03T00:07:51.901Z,20.88
2017-06-03T00:08:52.542Z,20.87
2017-06-03T00:09:53.184Z,20.81
2017-06-03T00:10:53.827Z,20.88
2017-06-03T00:11:54.461Z,20.81
2017-06-03T00:12:55.302Z,20.92
2017-06-03T00:13:55.947Z,20.84
2017-06-03T00:14:56.590Z,20.77
2017-06-03T00:15:57.291Z,20.80
2017-06-03T00:16:57.933Z,20.75
2017-06-03T00:17:58.574Z,20.77
2017-06-03T00:18:59.218Z,20.77
2017-06-03T00:19:59.854Z,20.69
2017-06-03T00:21:00.688Z,20.72
2017-06-03T00:22:01.330Z,20.81
2017-06-03T00:23:01.969Z,20.72
2017-06-03T00:24:02.610Z,20.72
2017-06-03T00:25:03.247Z,20.72
2017-06-03T00:26:03.889Z,20.67
2017-06-03T00:27:04.533Z,20.69
2017-06-03T00:28:05.181Z,20.70
2017-06-03T00:29:06.015Z,20.70
2017-06-03T00:30:06.656Z,20.72
2017-06-03T00:31:07.296Z,20.77
2017-06-03T00:32:07.939Z,20.77
2017-06-03T00:33:08.584Z,20.72
2017-06-03T00:34:09.223Z,20.77
2017-06-03T00:35:09.863Z,20.75
2017-06-03T00:36:10.504Z,20.74
2017-06-03T00:37:11.346Z,20.72
2017-06-03T00:38:11.990Z,20.75
2017-06-03T00:39:12.628Z,20.69
2017-06-03T00:40:13.270Z,20.69
2017-06-03T00:41:13.910Z,20.67
2017-06-03T00:42:14.550Z,20.62
2017-06-03T00:43:15.193Z,20.60
2017-06-03T00:44:15.835Z,20.63
2017-06-03T00:45:16.478Z,20.62
2017-06-03T00:46:17.311Z,20.62
2017-06-03T00:47:17.905Z,20.65
2017-06-03T00:48:18.544Z,20.66
2017-06-03T00:49:19.184Z,20.65
2017-06-03T00:50:19.826Z,20.66
2017-06-03T00:51:20.466Z,20.63
2017-06-03T00:52:21.107Z,20.65
2017-06-03T00:53:21.752Z,20.65
2017-06-03T00:54:22.594Z,20.66
2017-06-03T00:55:23.295Z,20.63
2017-06-03T00:56:24.873Z,20.63
2017-06-03T00:57:25.511Z,20.63
2017-06-03T00:58:26.152Z,20.60
2017-06-03T00:59:26.794Z,20.62
2017-06-03T01:00:27.432Z,20.66
2017-06-03T01:01:28.074Z,20.63
2017-06-03T01:02:28.914Z,20.60
2017-06-03T01:03:29.556Z,20.60
2017-06-03T01:04:30.195Z,20.63
2017-06-03T01:05:30.835Z,20.59
2017-06-03T01:06:31.476Z,20.62
2017-06-03T01:07:32.125Z,20.65
2017-06-03T01:08:32.757Z,20.59
2017-06-03T01:09:33.397Z,20.60
2017-06-03T01:10:34.334Z,20.58
2017-06-03T01:11:34.979Z,20.63
2017-06-03T01:12:35.617Z,20.52
2017-06-03T01:13:36.207Z,20.52
2017-06-03T01:14:36.847Z,20.52
2017-06-03T01:15:37.489Z,20.62
2017-06-03T01:16:38.131Z,20.59
2017-06-03T01:17:38.773Z,20.62
2017-06-03T01:18:39.410Z,20.58
2017-06-03T01:19:40.250Z,20.52
2017-06-03T01:20:40.895Z,20.58
2017-06-03T01:21:41.539Z,20.59
2017-06-03T01:22:42.182Z,20.48
2017-06-03T01:23:42.823Z,20.52
2017-06-03T01:24:43.465Z,20.59
2017-06-03T01:25:44.106Z,20.47
2017-06-03T01:26:44.747Z,20.41
2017-06-03T01:27:45.588Z,20.43
2017-06-03T01:28:46.178Z,20.40
2017-06-03T01:29:46.818Z,20.48
2017-06-03T01:30:47.459Z,20.43
2017-06-03T01:31:48.100Z,20.48
2017-06-03T01:32:48.742Z,20.55
2017-06-03T01:33:49.387Z,20.47
2017-06-03T01:34:50.028Z,20.48
2017-06-03T01:35:50.868Z,20.47
2017-06-03T01:36:51.510Z,20.50
2017-06-03T01:37:52.154Z,20.47
2017-06-03T01:38:52.795Z,20.47
2017-06-03T01:39:53.434Z,20.50
2017-06-03T01:40:54.071Z,20.41
2017-06-03T01:41:54.712Z,20.47
2017-06-03T01:42:55.354Z,20.52
2017-06-03T01:43:56.145Z,20.43
2017-06-03T01:44:56.788Z,20.51
2017-06-03T01:45:57.428Z,20.48
2017-06-03T01:46:58.070Z,20.51
2017-06-03T01:47:58.711Z,20.48
2017-06-03T01:48:59.354Z,20.43
2017-06-03T01:49:59.996Z,20.40
2017-06-03T01:51:00.635Z,20.48
2017-06-03T01:52:01.527Z,20.43
2017-06-03T01:53:02.169Z,20.48
2017-06-03T01:54:02.805Z,20.41
2017-06-03T01:55:03.447Z,20.39
2017-06-03T01:56:04.089Z,20.41
2017-06-03T01:57:04.730Z,20.43
2017-06-03T01:58:05.371Z,20.44
2017-06-03T01:59:06.012Z,20.40
2017-06-03T02:00:06.652Z,20.43
2017-06-03T02:01:07.444Z,20.37
2017-06-03T02:02:08.087Z,20.44
2017-06-03T02:03:08.726Z,20.40
2017-06-03T02:04:09.368Z,20.37
2017-06-03T02:05:10.012Z,20.39
2017-06-03T02:06:10.653Z,20.31
2017-06-03T02:07:11.292Z,20.37
2017-06-03T02:08:11.932Z,20.36
2017-06-03T02:09:12.776Z,20.34
2017-06-03T02:10:13.422Z,20.31
2017-06-03T02:11:14.060Z,20.36
2017-06-03T02:12:14.700Z,20.28
2017-06-03T02:13:15.334Z,20.37
2017-06-03T02:14:15.975Z,20.28
2017-06-03T02:15:16.618Z,20.32
2017-06-03T02:16:17.259Z,20.32
2017-06-03T02:17:18.201Z,20.41
2017-06-03T02:18:18.841Z,20.29
2017-06-03T02:19:19.481Z,20.31
2017-06-03T02:20:20.124Z,20.29
2017-06-03T02:21:20.762Z,20.37
2017-06-03T02:22:21.404Z,20.34
2017-06-03T02:23:22.046Z,20.32
2017-06-03T02:24:22.688Z,20.28
2017-06-03T02:25:23.478Z,20.29
2017-06-03T02:26:24.119Z,20.29
2017-06-03T02:27:24.765Z,20.29
2017-06-03T02:28:25.455Z,20.24
2017-06-03T02:29:26.097Z,20.28
2017-06-03T02:30:26.736Z,20.28
2017-06-03T02:31:27.377Z,20.29
2017-06-03T02:32:28.018Z,20.29
2017-06-03T02:33:28.658Z,20.29
2017-06-03T02:34:29.499Z,20.21
2017-06-03T02:35:30.137Z,20.25
2017-06-03T02:36:30.778Z,20.24
2017-06-03T02:37:31.420Z,20.28
2017-06-03T02:38:32.059Z,20.29
2017-06-03T02:39:32.701Z,20.31
2017-06-03T02:40:33.343Z,20.34
2017-06-03T02:41:33.983Z,20.28
2017-06-03T02:42:34.774Z,20.31
2017-06-03T02:43:35.418Z,20.31
2017-06-03T02:44:36.061Z,20.31
2017-06-03T02:45:36.700Z,20.31
2017-06-03T02:46:37.339Z,20.26
2017-06-03T02:47:37.984Z,20.34
2017-06-03T02:48:38.625Z,20.31
2017-06-03T02:49:39.264Z,20.37
2017-06-03T02:50:40.207Z,20.34
2017-06-03T02:51:40.849Z,20.34
2017-06-03T02:52:41.491Z,20.29
2017-06-03T02:53:42.139Z,20.31
2017-06-03T02:54:42.782Z,20.34
2017-06-03T02:55:43.421Z,20.31
2017-06-03T02:56:44.055Z,20.26
2017-06-03T02:57:44.696Z,20.28
2017-06-03T02:58:45.488Z,20.26
2017-06-03T02:59:46.135Z,20.29
2017-06-03T03:00:46.771Z,20.22
2017-06-03T03:01:47.411Z,20.22
2017-06-03T03:02:48.056Z,20.26
2017-06-03T03:03:48.699Z,20.24
2017-06-03T03:04:49.335Z,20.26
2017-06-03T03:05:49.974Z,20.26
2017-06-03T03:06:50.817Z,20.26
2017-06-03T03:07:51.457Z,20.18
2017-06-03T03:08:52.100Z,20.26
2017-06-03T03:09:52.741Z,20.28
2017-06-03T03:10:53.382Z,20.25
2017-06-03T03:11:54.022Z,20.21
2017-06-03T03:12:54.664Z,20.19
2017-06-03T03:13:55.306Z,20.22
2017-06-03T03:14:55.951Z,20.13
2017-06-03T03:15:56.795Z,20.24
2017-06-03T03:16:57.434Z,20.25
2017-06-03T03:17:58.073Z,20.18
2017-06-03T03:18:58.713Z,20.21
2017-06-03T03:19:59.351Z,20.26
2017-06-03T03:20:59.997Z,20.22
2017-06-03T03:22:00.634Z,20.22
2017-06-03T03:23:01.275Z,20.21
2017-06-03T03:24:02.115Z,20.22
2017-06-03T03:25:02.753Z,20.26
2017-06-03T03:26:03.392Z,20.19
2017-06-03T03:27:04.033Z,20.24
2017-06-03T03:28:04.675Z,20.13
2017-06-03T03:29:05.312Z,20.21
2017-06-03T03:30:05.953Z,20.13
2017-06-03T03:31:06.600Z,20.09
2017-06-03T03:32:07.436Z,20.10
2017-06-03T03:33:08.078Z,20.26
2017-06-03T03:34:08.715Z,20.19
2017-06-03T03:35:09.358Z,20.37
2017-06-03T03:36:09.999Z,20.25
2017-06-03T03:37:10.637Z,20.29
2017-06-03T03:38:11.272Z,20.28
2017-06-03T03:39:11.913Z,20.26
2017-06-03T03:40:12.704Z,20.25
2017-06-03T03:41:13.341Z,20.18
2017-06-03T03:42:13.984Z,20.11
2017-06-03T03:43:14.624Z,20.14
2017-06-03T03:44:15.266Z,20.16
2017-06-03T03:45:15.907Z,20.18
2017-06-03T03:46:16.542Z,20.13
2017-06-03T03:47:17.186Z,20.16
2017-06-03T03:48:17.823Z,20.19
2017-06-03T03:49:18.765Z,20.22
2017-06-03T03:50:19.406Z,20.16
2017-06-03T03:51:20.047Z,20.13
2017-06-03T03:52:20.689Z,20.16
2017-06-03T03:53:21.329Z,20.21
2017-06-03T03:54:21.921Z,20.18
2017-06-03T03:55:22.559Z,20.18
2017-06-03T03:56:23.198Z,20.18
2017-06-03T03:57:23.990Z,20.13
2017-06-03T03:58:24.634Z,20.18
2017-06-03T03:59:25.274Z,20.19
2017-06-03T04:00:25.917Z,20.14
2017-06-03T04:01:26.556Z,20.11
2017-06-03T04:02:27.197Z,20.14
2017-06-03T04:03:27.840Z,20.18
2017-06-03T04:04:28.479Z,20.16
2017-06-03T04:05:29.321Z,20.07
2017-06-03T04:06:29.964Z,20.04
2017-06-03T04:07:30.604Z,20.16
2017-06-03T04:08:31.244Z,20.16
2017-06-03T04:09:31.885Z,20.19
2017-06-03T04:10:32.526Z,20.14
2017-06-03T04:11:33.168Z,20.16
2017-06-03T04:12:33.808Z,20.16
2017-06-03T04:13:34.648Z,20.16
2017-06-03T04:14:35.293Z,20.11
2017-06-03T04:15:35.933Z,20.07
2017-06-03T04:16:36.578Z,20.11
2017-06-03T04:17:37.218Z,20.13
2017-06-03T04:18:37.857Z,20.03
2017-06-03T04:19:38.499Z,20.16
2017-06-03T04:20:39.139Z,20.14
2017-06-03T04:21:39.979Z,20.16
2017-06-03T04:22:40.622Z,20.07
2017-06-03T04:23:41.260Z,20.13
2017-06-03T04:24:41.901Z,20.14
2017-06-03T04:25:42.541Z,20.18
2017-06-03T04:26:43.182Z,20.06
2017-06-03T04:27:43.825Z,20.16
2017-06-03T04:28:44.467Z,20.06
2017-06-03T04:29:45.109Z,20.14
2017-06-03T04:30:45.952Z,20.18
2017-06-03T04:31:46.594Z,20.14
2017-06-03T04:32:47.234Z,20.11
2017-06-03T04:33:47.876Z,20.18
2017-06-03T04:34:48.516Z,20.07
2017-06-03T04:35:49.155Z,20.04
2017-06-03T04:36:49.799Z,20.04
2017-06-03T04:37:50.438Z,20.07
2017-06-03T04:38:51.278Z,20.10
2017-06-03T04:39:51.921Z,20.14
2017-06-03T04:40:52.562Z,20.14
2017-06-03T04:41:53.204Z,20.16
2017-06-03T04:42:53.842Z,20.18
2017-06-03T04:43:54.483Z,20.18
2017-06-03T04:44:55.127Z,20.14
2017-06-03T04:45:55.764Z,20.16
2017-06-03T04:46:56.602Z,20.14
2017-06-03T04:47:57.243Z,20.10
2017-06-03T04:48:57.885Z,20.18
2017-06-03T04:49:58.527Z,20.04
2017-06-03T04:50:59.167Z,20.13
2017-06-03T04:51:59.807Z,20.13
2017-06-03T04:53:00.448Z,20.03
2017-06-03T04:54:01.088Z,20.07
2017-06-03T04:55:01.882Z,20.09
2017-06-03T04:56:02.524Z,20.16
2017-06-03T04:57:03.166Z,20.00
2017-06-03T04:58:03.799Z,20.06
2017-06-03T04:59:04.442Z,20.02
2017-06-03T05:00:05.084Z,20.06
2017-06-03T05:01:05.728Z,20.04
2017-06-03T05:02:06.425Z,20.04
2017-06-03T05:03:07.066Z,20.03
2017-06-03T05:04:07.910Z,20.04
2017-06-03T05:05:08.548Z,19.96
2017-06-03T05:06:09.191Z,20.00
2017-06-03T05:07:09.832Z,20.02
2017-06-03T05:08:10.473Z,20.03
2017-06-03T05:09:11.108Z,20.03
2017-06-03T05:10:11.749Z,19.92
2017-06-03T05:11:12.392Z,19.96
2017-06-03T05:12:13.183Z,19.92
2017-06-03T05:13:13.828Z,19.92
2017-06-03T05:14:14.468Z,19.94
2017-06-03T05:15:15.111Z,19.96
2017-06-03T05:16:15.750Z,19.89
2017-06-03T05:17:16.391Z,19.91
2017-06-03T05:18:17.035Z,19.88
2017-06-03T05:19:17.676Z,19.89
2017-06-03T05:20:18.517Z,19.89
2017-06-03T05:21:19.157Z,19.94
2017-06-03T05:22:19.798Z,19.95
2017-06-03T05:23:20.442Z,20.02
2017-06-03T05:24:21.082Z,19.94
2017-06-03T05:25:21.725Z,19.99
2017-06-03T05:26:22.364Z,20.00
2017-06-03T05:27:22.954Z,20.07
2017-06-03T05:28:23.797Z,20.04
2017-06-03T05:29:24.436Z,20.00
2017-06-03T05:30:25.078Z,20.07
2017-06-03T05:31:25.718Z,19.96
2017-06-03T05:32:26.354Z,20.04
2017-06-03T05:33:26.996Z,19.92
2017-06-03T05:34:27.634Z,19.95
2017-06-03T05:35:28.272Z,19.94
2017-06-03T05:36:29.164Z,19.94
2017-06-03T05:37:29.805Z,19.92
2017-06-03T05:38:30.442Z,19.94
2017-06-03T05:39:31.080Z,19.89
2017-06-03T05:40:31.723Z,19.96
2017-06-03T05:41:32.362Z,19.96
2017-06-03T05:42:33.002Z,19.89
2017-06-03T05:43:33.651Z,19.95
2017-06-03T05:44:34.287Z,19.92
2017-06-03T05:45:35.280Z,19.91
2017-06-03T05:46:35.921Z,19.94
2017-06-03T05:47:36.565Z,19.94
2017-06-03T05:48:37.206Z,19.89
2017-06-03T05:49:37.847Z,19.94
2017-06-03T05:50:38.486Z,19.95
2017-06-03T05:51:39.127Z,19.91
2017-06-03T05:52:39.766Z,19.95
2017-06-03T05:53:40.708Z,19.86
2017-06-03T05:54:41.350Z,19.91
2017-06-03T05:55:41.992Z,19.85
2017-06-03T05:56:42.632Z,19.88
2017-06-03T05:57:43.278Z,19.88
2017-06-03T05:58:43.912Z,19.95
2017-06-03T05:59:44.555Z,19.94
2017-06-03T06:00:45.197Z,19.95
2017-06-03T06:01:45.987Z,19.95
2017-06-03T06:02:46.629Z,19.91
2017-06-03T06:03:47.269Z,19.94
2017-06-03T06:04:47.913Z,19.96
2017-06-03T06:05:48.548Z,19.94
2017-06-03T06:06:49.189Z,19.86
2017-06-03T06:07:49.831Z,19.91
2017-06-03T06:08:50.469Z,20.02
2017-06-03T06:09:51.411Z,19.88
2017-06-03T06:10:52.050Z,19.91
2017-06-03T06:11:52.693Z,19.94
2017-06-03T06:12:53.334Z,19.96
2017-06-03T06:13:53.982Z,19.92
2017-06-03T06:14:54.615Z,20.00
2017-06-03T06:15:55.254Z,20.02
2017-06-03T06:16:55.895Z,19.96
2017-06-03T06:17:56.538Z,20.07
2017-06-03T06:18:57.329Z,20.03
2017-06-03T06:19:57.972Z,19.99
2017-06-03T06:20:58.614Z,20.04
2017-06-03T06:21:59.254Z,19.92
2017-06-03T06:22:59.890Z,19.95
2017-06-03T06:24:00.531Z,19.91
2017-06-03T06:25:01.171Z,19.96
2017-06-03T06:26:01.811Z,19.94
2017-06-03T06:27:02.653Z,19.95
2017-06-03T06:28:03.301Z,19.92
2017-06-03T06:29:03.996Z,19.96
2017-06-03T06:30:04.637Z,19.92
2017-06-03T06:31:05.278Z,19.94
2017-06-03T06:32:05.923Z,19.94
2017-06-03T06:33:06.561Z,19.99
2017-06-03T06:34:07.201Z,19.91
2017-06-03T06:35:07.991Z,19.91
2017-06-03T06:36:08.634Z,19.88
2017-06-03T06:37:09.272Z,19.88
2017-06-03T06:38:09.915Z,19.89
2017-06-03T06:39:10.553Z,19.92
2017-06-03T06:40:11.198Z,19.89
2017-06-03T06:41:11.838Z,19.92
2017-06-03T06:42:12.483Z,19.94
2017-06-03T06:43:13.373Z,19.96
2017-06-03T06:44:14.014Z,19.92
2017-06-03T06:45:14.652Z,20.00
2017-06-03T06:46:15.293Z,19.95
2017-06-03T06:47:15.936Z,19.92
2017-06-03T06:48:16.579Z,19.85
2017-06-03T06:49:17.218Z,19.88
2017-06-03T06:50:17.858Z,19.94
2017-06-03T06:51:18.658Z,19.84
2017-06-03T06:52:19.301Z,19.88
2017-06-03T06:53:19.941Z,19.92
2017-06-03T06:54:20.581Z,19.92
2017-06-03T06:55:21.221Z,20.03
2017-06-03T06:56:21.856Z,20.09
2017-06-03T06:57:22.493Z,20.11
2017-06-03T06:58:23.137Z,20.06
2017-06-03T06:59:23.780Z,20.16
2017-06-03T07:00:24.622Z,20.13
2017-06-03T07:01:25.258Z,20.19
2017-06-03T07:02:25.899Z,20.10
2017-06-03T07:03:26.563Z,20.16
2017-06-03T07:04:27.184Z,20.16
2017-06-03T07:05:27.824Z,20.11
2017-06-03T07:06:28.460Z,20.13
2017-06-03T07:07:29.099Z,20.13
2017-06-03T07:08:30.043Z,20.04
2017-06-03T07:09:30.685Z,20.13
2017-06-03T07:10:31.328Z,20.16
2017-06-03T07:11:31.967Z,20.13
2017-06-03T07:12:32.606Z,20.14
2017-06-03T07:13:33.248Z,20.18
2017-06-03T07:14:33.893Z,20.16
2017-06-03T07:15:34.532Z,20.14
2017-06-03T07:16:35.320Z,20.16
2017-06-03T07:17:35.965Z,20.11
2017-06-03T07:18:36.606Z,20.14
2017-06-03T07:19:37.249Z,20.04
2017-06-03T07:20:37.892Z,20.13
2017-06-03T07:21:38.529Z,20.07
2017-06-03T07:22:39.169Z,20.14
2017-06-03T07:23:39.808Z,20.16
2017-06-03T07:24:40.649Z,20.13
2017-06-03T07:25:41.291Z,20.11
2017-06-03T07:26:41.935Z,20.16
2017-06-03T07:27:42.575Z,20.11
2017-06-03T07:28:43.217Z,20.11
2017-06-03T07:29:43.856Z,20.06
2017-06-03T07:30:44.496Z,20.14
2017-06-03T07:31:45.139Z,20.13
2017-06-03T07:32:45.785Z,20.19
2017-06-03T07:33:46.575Z,20.13
2017-06-03T07:34:47.218Z,20.06
2017-06-03T07:35:47.859Z,20.14
2017-06-03T07:36:48.505Z,20.16
2017-06-03T07:37:49.144Z,20.11
2017-06-03T07:38:49.787Z,20.14
2017-06-03T07:39:50.430Z,20.13
2017-06-03T07:40:51.071Z,20.13
2017-06-03T07:41:51.909Z,20.06
2017-06-03T07:42:52.551Z,20.02
2017-06-03T07:43:53.194Z,20.07
2017-06-03T07:44:53.837Z,20.07
2017-06-03T07:45:54.473Z,20.14
2017-06-03T07:46:55.112Z,20.03
2017-06-03T07:47:56.074Z,20.03
2017-06-03T07:48:56.716Z,20.04
2017-06-03T07:49:57.655Z,20.06
2017-06-03T07:50:58.295Z,20.04
2017-06-03T07:51:58.935Z,20.04
2017-06-03T07:52:59.579Z,20.10
2017-06-03T07:54:00.222Z,20.11
2017-06-03T07:55:00.866Z,20.14
2017-06-03T07:56:01.508Z,20.18
2017-06-03T07:57:02.152Z,20.16
2017-06-03T07:58:02.990Z,20.18
2017-06-03T07:59:04.283Z,20.19
2017-06-03T08:00:04.926Z,20.18
2017-06-03T08:01:05.568Z,20.16
2017-06-03T08:02:06.209Z,20.14
2017-06-03T08:03:06.850Z,20.21
2017-06-03T08:04:07.488Z,20.13
2017-06-03T08:05:08.130Z,20.18
2017-06-03T08:06:08.970Z,20.11
2017-06-03T08:07:09.609Z,20.09
2017-06-03T08:08:10.252Z,20.14
2017-06-03T08:09:10.892Z,20.19
2017-06-03T08:10:11.531Z,20.13
2017-06-03T08:11:12.172Z,20.03
2017-06-03T08:12:12.811Z,20.03
2017-06-03T08:13:13.452Z,20.10
2017-06-03T08:14:14.096Z,20.13
2017-06-03T08:15:15.041Z,20.13
2017-06-03T08:16:15.680Z,20.06
2017-06-03T08:17:16.321Z,20.04
2017-06-03T08:18:16.962Z,20.07
2017-06-03T08:19:17.597Z,20.07
2017-06-03T08:20:18.238Z,20.02
2017-06-03T08:21:18.885Z,20.06
2017-06-03T08:22:19.528Z,20.03
2017-06-03T08:23:20.320Z,20.03
2017-06-03T08:24:20.963Z,20.06
2017-06-03T08:25:21.605Z,20.02
2017-06-03T08:26:22.247Z,20.03
2017-06-03T08:27:22.842Z,20.03
2017-06-03T08:28:23.476Z,20.03
2017-06-03T08:29:24.118Z,20.14
2017-06-03T08:30:24.754Z,20.06
2017-06-03T08:31:25.600Z,20.06
2017-06-03T08:32:26.240Z,20.03
2017-06-03T08:33:26.881Z,20.07
2017-06-03T08:34:27.524Z,20.11
2017-06-03T08:35:28.167Z,20.18
2017-06-03T08:36:28.808Z,20.03
2017-06-03T08:37:29.445Z,20.00
2017-06-03T08:38:30.091Z,20.03
2017-06-03T08:39:30.930Z,20.04
2017-06-03T08:40:31.571Z,20.13
2017-06-03T08:41:32.212Z,20.07
2017-06-03T08:42:32.858Z,20.04
2017-06-03T08:43:33.502Z,20.16
2017-06-03T08:44:34.146Z,20.16
2017-06-03T08:45:34.788Z,20.06
2017-06-03T08:46:35.429Z,20.13
2017-06-03T08:47:36.070Z,20.18
2017-06-03T08:48:36.909Z,20.14
2017-06-03T08:49:37.551Z,20.07
2017-06-03T08:50:38.194Z,20.13
2017-06-03T08:51:38.834Z,20.04
2017-06-03T08:52:39.475Z,20.04
2017-06-03T08:53:40.113Z,20.13
2017-06-03T08:54:40.754Z,20.16
2017-06-03T08:55:41.397Z,20.18
2017-06-03T08:56:42.240Z,20.11
2017-06-03T08:57:42.881Z,20.10
2017-06-03T08:58:43.519Z,20.10
2017-06-03T08:59:44.161Z,20.16
2017-06-03T09:00:44.804Z,20.04
2017-06-03T09:01:45.448Z,20.18
2017-06-03T09:02:46.090Z,20.16
2017-06-03T09:03:46.735Z,20.07
2017-06-03T09:04:47.525Z,20.04
2017-06-03T09:05:48.165Z,20.18
2017-06-03T09:06:48.807Z,20.18
2017-06-03T09:07:49.450Z,20.16
2017-06-03T09:08:50.085Z,20.13
2017-06-03T09:09:50.727Z,20.14
2017-06-03T09:10:51.368Z,20.11
2017-06-03T09:11:52.009Z,20.16
2017-06-03T09:12:52.851Z,20.13
2017-06-03T09:13:53.492Z,20.02
2017-06-03T09:14:54.136Z,20.13
2017-06-03T09:15:54.777Z,20.13
2017-06-03T09:16:55.413Z,20.16
2017-06-03T09:17:56.056Z,20.18
2017-06-03T09:18:56.700Z,20.14
2017-06-03T09:19:57.342Z,20.19
2017-06-03T09:20:58.184Z,20.24
2017-06-03T09:21:58.825Z,20.18
2017-06-03T09:22:59.466Z,20.19
2017-06-03T09:24:00.112Z,20.18
2017-06-03T09:25:00.756Z,20.18
2017-06-03T09:26:01.391Z,20.11
2017-06-03T09:27:02.032Z,20.19
2017-06-03T09:28:02.673Z,20.14
2017-06-03T09:29:03.309Z,20.19
2017-06-03T09:30:04.153Z,20.19
2017-06-03T09:31:04.795Z,20.13
2017-06-03T09:32:05.435Z,20.21
2017-06-03T09:33:06.076Z,20.14
2017-06-03T09:34:06.720Z,20.09
2017-06-03T09:35:07.362Z,20.28
2017-06-03T09:36:07.999Z,20.10
2017-06-03T09:37:08.646Z,20.24
2017-06-03T09:38:09.544Z,20.26
2017-06-03T09:39:10.184Z,20.25
2017-06-03T09:40:10.825Z,20.28
2017-06-03T09:41:11.467Z,20.22
2017-06-03T09:42:12.103Z,20.28
2017-06-03T09:43:12.745Z,20.31
2017-06-03T09:44:13.387Z,20.26
2017-06-03T09:45:14.030Z,20.31
2017-06-03T09:46:14.871Z,20.28
2017-06-03T09:47:15.508Z,20.26
2017-06-03T09:48:16.150Z,20.32
2017-06-03T09:49:16.795Z,20.29
2017-06-03T09:50:17.438Z,20.36
2017-06-03T09:51:18.079Z,20.32
2017-06-03T09:52:18.720Z,20.36
2017-06-03T09:53:19.359Z,20.39
2017-06-03T09:54:20.150Z,20.44
2017-06-03T09:55:20.791Z,20.48
2017-06-03T09:56:21.434Z,20.47
2017-06-03T09:57:22.074Z,20.43
2017-06-03T09:58:22.718Z,20.48
2017-06-03T09:59:23.355Z,20.47
2017-06-03T10:00:23.997Z,20.43
2017-06-03T10:01:24.643Z,20.48
2017-06-03T10:02:25.285Z,20.39
2017-06-03T10:03:26.128Z,20.47
2017-06-03T10:04:26.770Z,20.41
2017-06-03T10:05:27.409Z,20.48
2017-06-03T10:06:28.147Z,20.44
2017-06-03T10:07:28.788Z,20.44
2017-06-03T10:08:29.381Z,20.39
2017-06-03T10:09:30.022Z,20.50
2017-06-03T10:10:30.666Z,20.47
2017-06-03T10:11:31.308Z,20.47
2017-06-03T10:12:31.948Z,20.47
2017-06-03T10:13:32.596Z,20.47
2017-06-03T10:14:33.232Z,20.55
2017-06-03T10:15:34.027Z,20.60
2017-06-03T10:16:34.679Z,20.51
2017-06-03T10:17:35.306Z,20.60
2017-06-03T10:18:35.950Z,20.63
2017-06-03T10:19:36.595Z,20.56
2017-06-03T10:20:37.236Z,20.56
2017-06-03T10:21:37.880Z,20.62
2017-06-03T10:22:38.523Z,20.60
2017-06-03T10:23:39.362Z,20.60
2017-06-03T10:24:40.006Z,20.63
2017-06-03T10:25:40.647Z,20.65
2017-06-03T10:26:41.241Z,20.63
2017-06-03T10:27:41.881Z,20.62
2017-06-03T10:28:42.525Z,20.60
2017-06-03T10:29:43.165Z,20.60
2017-06-03T10:30:43.755Z,20.70
2017-06-03T10:31:44.598Z,20.72
2017-06-03T10:32:45.239Z,20.75
2017-06-03T10:33:45.881Z,20.77
2017-06-03T10:34:46.521Z,20.74
2017-06-03T10:35:47.167Z,20.80
2017-06-03T10:36:47.806Z,20.81
2017-06-03T10:37:48.447Z,20.74
2017-06-03T10:38:49.088Z,20.78
2017-06-03T10:39:49.880Z,20.69
2017-06-03T10:40:50.523Z,20.72
2017-06-03T10:41:51.166Z,20.77
2017-06-03T10:42:51.810Z,20.87
2017-06-03T10:43:52.400Z,20.87
2017-06-03T10:44:53.042Z,20.77
2017-06-03T10:45:53.685Z,20.84
2017-06-03T10:46:54.326Z,20.92
2017-06-03T10:47:54.977Z,20.88
2017-06-03T10:48:55.814Z,20.93
2017-06-03T10:49:56.455Z,20.93
2017-06-03T10:50:57.097Z,20.99
2017-06-03T10:51:57.736Z,20.97
2017-06-03T10:52:58.377Z,20.97
2017-06-03T10:53:59.021Z,20.96
2017-06-03T10:54:59.664Z,20.93
2017-06-03T10:56:00.308Z,20.99
2017-06-03T10:57:01.146Z,21.07
2017-06-03T10:58:01.789Z,21.02
2017-06-03T10:59:02.436Z,20.99
2017-06-03T11:00:03.081Z,20.97
2017-06-03T11:01:03.722Z,21.11
2017-06-03T11:02:04.365Z,21.05
2017-06-03T11:03:05.008Z,21.05
2017-06-03T11:04:05.650Z,21.05
2017-06-03T11:05:06.490Z,21.02
2017-06-03T11:06:07.135Z,21.00
2017-06-03T11:07:07.776Z,21.02
2017-06-03T11:08:08.421Z,21.00
2017-06-03T11:09:09.064Z,21.06
2017-06-03T11:10:09.706Z,21.02
2017-06-03T11:11:10.349Z,21.15
2017-06-03T11:12:10.990Z,21.06
2017-06-03T11:13:11.776Z,21.06
2017-06-03T11:14:12.418Z,21.05
2017-06-03T11:15:13.060Z,21.12
2017-06-03T11:16:13.701Z,21.14
2017-06-03T11:17:14.343Z,21.09
2017-06-03T11:18:14.992Z,21.12
2017-06-03T11:19:15.631Z,21.12
2017-06-03T11:20:16.278Z,21.15
2017-06-03T11:21:17.118Z,21.11
2017-06-03T11:22:17.755Z,21.12
2017-06-03T11:23:18.402Z,21.15
2017-06-03T11:24:19.044Z,21.17
2017-06-03T11:25:19.689Z,21.14
2017-06-03T11:26:20.331Z,21.15
2017-06-03T11:27:20.969Z,21.20
2017-06-03T11:28:21.606Z,21.15
2017-06-03T11:29:22.248Z,21.17
2017-06-03T11:30:23.139Z,21.12
2017-06-03T11:31:23.785Z,21.20
2017-06-03T11:32:24.429Z,21.20
2017-06-03T11:33:25.071Z,21.17
2017-06-03T11:34:25.712Z,21.20
2017-06-03T11:35:26.353Z,21.29
2017-06-03T11:36:26.943Z,21.25
2017-06-03T11:37:27.584Z,21.24
2017-06-03T11:38:28.478Z,21.25
2017-06-03T11:39:29.115Z,21.30
2017-06-03T11:40:29.757Z,21.29
2017-06-03T11:41:30.400Z,21.32
2017-06-03T11:42:31.042Z,21.32
2017-06-03T11:43:31.686Z,21.35
2017-06-03T11:44:32.326Z,21.35
2017-06-03T11:45:32.973Z,21.32
2017-06-03T11:46:33.764Z,21.33
2017-06-03T11:47:34.405Z,21.29
2017-06-03T11:48:35.100Z,21.29
2017-06-03T11:49:35.741Z,21.36
2017-06-03T11:50:36.385Z,21.37
2017-06-03T11:51:37.023Z,21.36
2017-06-03T11:52:37.661Z,21.37
2017-06-03T11:53:38.300Z,21.40
2017-06-03T11:54:39.293Z,21.35
2017-06-03T11:55:39.937Z,21.42
2017-06-03T11:56:40.572Z,21.40
2017-06-03T11:57:41.215Z,21.42
2017-06-03T11:58:41.858Z,21.37
2017-06-03T11:59:42.504Z,21.32
2017-06-03T12:00:43.139Z,21.35
2017-06-03T12:01:43.780Z,21.32
2017-06-03T12:02:44.425Z,21.32
2017-06-03T12:03:45.215Z,21.30
2017-06-03T12:04:45.857Z,21.32
2017-06-03T12:05:46.498Z,21.35
2017-06-03T12:06:47.141Z,21.32
2017-06-03T12:07:47.784Z,21.39
2017-06-03T12:08:48.426Z,21.40
2017-06-03T12:09:49.069Z,21.39
2017-06-03T12:10:49.712Z,21.45
2017-06-03T12:11:50.556Z,21.48
2017-06-03T12:12:51.198Z,21.42
2017-06-03T12:13:51.840Z,21.43
2017-06-03T12:14:52.481Z,21.40
2017-06-03T12:15:53.127Z,21.40
2017-06-03T12:16:53.770Z,21.48
2017-06-03T12:17:54.413Z,21.48
2017-06-03T12:18:55.056Z,21.51
2017-06-03T12:19:55.899Z,21.43
2017-06-03T12:20:56.542Z,21.48
2017-06-03T12:21:57.183Z,21.52
2017-06-03T12:22:57.827Z,21.43
2017-06-03T12:23:58.470Z,21.45
2017-06-03T12:24:59.119Z,21.50
2017-06-03T12:25:59.705Z,21.51
2017-06-03T12:27:00.347Z,21.51
2017-06-03T12:28:01.191Z,21.45
2017-06-03T12:29:01.831Z,21.48
2017-06-03T12:30:02.472Z,21.51
2017-06-03T12:31:03.112Z,21.51
2017-06-03T12:32:03.749Z,21.58
2017-06-03T12:33:04.392Z,21.58
2017-06-03T12:34:05.038Z,21.60
2017-06-03T12:35:05.681Z,21.57
2017-06-03T12:36:06.523Z,21.60
2017-06-03T12:37:07.169Z,21.61
2017-06-03T12:38:07.818Z,21.72
2017-06-03T12:39:08.513Z,21.67
2017-06-03T12:40:09.155Z,21.72
2017-06-03T12:41:09.842Z,21.58
2017-06-03T12:42:10.484Z,21.67
2017-06-03T12:43:11.123Z,21.69
2017-06-03T12:44:11.768Z,21.70
2017-06-03T12:45:12.607Z,21.70
2017-06-03T12:46:13.251Z,21.72
2017-06-03T12:47:13.894Z,21.70
2017-06-03T12:48:14.534Z,21.77
2017-06-03T12:49:15.178Z,21.72
2017-06-03T12:50:15.822Z,21.76
2017-06-03T12:51:16.463Z,21.76
2017-06-03T12:52:17.106Z,21.77
2017-06-03T12:53:17.947Z,21.76
2017-06-03T12:54:18.589Z,21.82
2017-06-03T12:55:19.233Z,21.83
2017-06-03T12:56:19.889Z,21.79
2017-06-03T12:57:20.515Z,21.85
2017-06-03T12:58:21.180Z,21.89
2017-06-03T12:59:21.800Z,21.83
2017-06-03T13:00:22.445Z,21.89
2017-06-03T13:01:23.229Z,21.91